sensor_id;sensor_type;location;lat;lon;timestamp;temperature;humidity
27128;DHT22;14660;49.008;8.390;2023-02-19T00:02:10;11.60;99.90
27128;DHT22;14660;49.008;8.390;2023-02-19T00:04:37;11.60;99.90
27128;DHT22;14660;49.008;8.390;2023-02-19T00:07:04;11.60;99.90
27128;DHT22;14660;49.008;8.390;2023-02-19T00:09:29;11.70;99.90
27128;DHT22;14660;49.008;8.390;2023-02-19T00:11:56;11.70;99.90
27128;DHT22;14660;49.008;8.390;2023-02-19T00:14:23;11.70;99.90
27128;DHT22;14660;49.008;8.390;2023-02-19T00:16:50;11.80;99.90
27128;DHT22;14660;49.008;8.390;2023-02-19T00:19:18;11.80;99.90
27128;DHT22;14660;49.008;8.390;2023-02-19T00:21:46;11.80;99.90
27128;DHT22;14660;49.008;8.390;2023-02-19T00:24:14;11.80;99.90
27128;DHT22;14660;49.008;8.390;2023-02-19T00:26:41;11.80;99.90
27128;DHT22;14660;49.008;8.390;2023-02-19T00:29:13;11.90;99.90
27128;DHT22;14660;49.008;8.390;2023-02-19T00:31:41;11.90;99.90
27128;DHT22;14660;49.008;8.390;2023-02-19T00:34:10;11.70;99.90
27128;DHT22;14660;49.008;8.390;2023-02-19T00:36:40;11.70;99.90
27128;DHT22;14660;49.008;8.390;2023-02-19T00:39:09;11.70;99.90
27128;DHT22;14660;49.008;8.390;2023-02-19T00:41:37;11.70;99.90
27128;DHT22;14660;49.008;8.390;2023-02-19T00:44:06;11.70;99.90
27128;DHT22;14660;49.008;8.390;2023-02-19T00:46:52;11.80;99.90
27128;DHT22;14660;49.008;8.390;2023-02-19T00:49:25;11.70;99.90
27128;DHT22;14660;49.008;8.390;2023-02-19T00:51:58;11.70;99.90
27128;DHT22;14660;49.008;8.390;2023-02-19T00:54:25;11.70;99.90
27128;DHT22;14660;49.008;8.390;2023-02-19T00:56:52;11.70;99.90
27128;DHT22;14660;49.008;8.390;2023-02-19T00:59:28;11.80;99.90
27128;DHT22;14660;49.008;8.390;2023-02-19T01:01:55;11.70;99.90
27128;DHT22;14660;49.008;8.390;2023-02-19T01:04:21;11.80;99.90
27128;DHT22;14660;49.008;8.390;2023-02-19T01:06:48;11.70;99.90
27128;DHT22;14660;49.008;8.390;2023-02-19T01:09:16;11.90;99.90
27128;DHT22;14660;49.008;8.390;2023-02-19T01:11:43;11.90;99.90
27128;DHT22;14660;49.008;8.390;2023-02-19T01:14:13;11.80;99.90
27128;DHT22;14660;49.008;8.390;2023-02-19T01:16:47;11.80;99.90
27128;DHT22;14660;49.008;8.390;2023-02-19T01:19:24;11.80;99.90
27128;DHT22;14660;49.008;8.390;2023-02-19T01:21:51;11.70;99.90
27128;DHT22;14660;49.008;8.390;2023-02-19T01:24:17;11.70;99.90
27128;DHT22;14660;49.008;8.390;2023-02-19T01:26:44;11.80;99.90
27128;DHT22;14660;49.008;8.390;2023-02-19T01:29:11;11.90;99.90
27128;DHT22;14660;49.008;8.390;2023-02-19T01:31:40;11.90;99.90
27128;DHT22;14660;49.008;8.390;2023-02-19T01:34:11;11.80;99.90
27128;DHT22;14660;49.008;8.390;2023-02-19T01:36:40;11.80;99.90
27128;DHT22;14660;49.008;8.390;2023-02-19T01:39:06;11.90;99.90
27128;DHT22;14660;49.008;8.390;2023-02-19T01:41:36;11.80;99.90
27128;DHT22;14660;49.008;8.390;2023-02-19T01:46:49;11.80;99.90
27128;DHT22;14660;49.008;8.390;2023-02-19T01:49:43;11.70;99.90
27128;DHT22;14660;49.008;8.390;2023-02-19T01:52:33;11.80;99.90
27128;DHT22;14660;49.008;8.390;2023-02-19T01:55:02;11.70;99.90
27128;DHT22;14660;49.008;8.390;2023-02-19T01:57:34;11.80;99.90
27128;DHT22;14660;49.008;8.390;2023-02-19T02:00:08;11.80;99.90
27128;DHT22;14660;49.008;8.390;2023-02-19T02:02:35;11.80;99.90
27128;DHT22;14660;49.008;8.390;2023-02-19T02:05:09;11.80;99.90
27128;DHT22;14660;49.008;8.390;2023-02-19T02:07:38;11.80;99.90
27128;DHT22;14660;49.008;8.390;2023-02-19T02:10:23;11.80;99.90
27128;DHT22;14660;49.008;8.390;2023-02-19T02:12:56;11.80;99.90
27128;DHT22;14660;49.008;8.390;2023-02-19T02:15:28;11.80;99.90
27128;DHT22;14660;49.008;8.390;2023-02-19T02:36:36;11.50;99.90
27128;DHT22;14660;49.008;8.390;2023-02-19T02:39:05;11.60;99.90
27128;DHT22;14660;49.008;8.390;2023-02-19T02:41:47;11.70;99.90
27128;DHT22;14660;49.008;8.390;2023-02-19T02:44:34;11.60;99.90
27128;DHT22;14660;49.008;8.390;2023-02-19T02:47:01;11.60;99.90
27128;DHT22;14660;49.008;8.390;2023-02-19T02:49:29;11.60;99.90
27128;DHT22;14660;49.008;8.390;2023-02-19T02:52:06;11.70;99.90
27128;DHT22;14660;49.008;8.390;2023-02-19T02:54:53;11.70;99.90
27128;DHT22;14660;49.008;8.390;2023-02-19T02:57:28;11.60;99.90
27128;DHT22;14660;49.008;8.390;2023-02-19T02:59:55;11.60;99.90
27128;DHT22;14660;49.008;8.390;2023-02-19T03:02:30;11.50;99.90
27128;DHT22;14660;49.008;8.390;2023-02-19T03:05:16;11.50;99.90
27128;DHT22;14660;49.008;8.390;2023-02-19T03:11:09;11.50;99.90
27128;DHT22;14660;49.008;8.390;2023-02-19T03:14:20;11.40;99.90
27128;DHT22;14660;49.008;8.390;2023-02-19T03:17:43;11.40;99.90
27128;DHT22;14660;49.008;8.390;2023-02-19T03:20:37;11.40;99.90
27128;DHT22;14660;49.008;8.390;2023-02-19T03:23:08;11.50;99.90
27128;DHT22;14660;49.008;8.390;2023-02-19T03:25:37;11.30;99.90
27128;DHT22;14660;49.008;8.390;2023-02-19T03:28:25;11.30;99.90
27128;DHT22;14660;49.008;8.390;2023-02-19T03:31:15;11.40;99.90
27128;DHT22;14660;49.008;8.390;2023-02-19T03:33:46;11.40;99.90
27128;DHT22;14660;49.008;8.390;2023-02-19T03:36:14;11.40;99.90
27128;DHT22;14660;49.008;8.390;2023-02-19T03:38:48;11.50;99.90
27128;DHT22;14660;49.008;8.390;2023-02-19T03:54:18;11.50;99.90
27128;DHT22;14660;49.008;8.390;2023-02-19T04:06:02;11.40;99.90
27128;DHT22;14660;49.008;8.390;2023-02-19T04:08:43;11.30;99.90
27128;DHT22;14660;49.008;8.390;2023-02-19T04:11:12;11.40;99.90
27128;DHT22;14660;49.008;8.390;2023-02-19T04:14:01;11.50;99.90
27128;DHT22;14660;49.008;8.390;2023-02-19T04:16:32;11.40;99.90
27128;DHT22;14660;49.008;8.390;2023-02-19T04:19:05;11.40;99.90
27128;DHT22;14660;49.008;8.390;2023-02-19T04:21:33;11.40;99.90
27128;DHT22;14660;49.008;8.390;2023-02-19T04:24:09;11.30;99.90
27128;DHT22;14660;49.008;8.390;2023-02-19T04:26:38;11.40;99.90
27128;DHT22;14660;49.008;8.390;2023-02-19T04:29:05;11.30;99.90
27128;DHT22;14660;49.008;8.390;2023-02-19T04:31:33;11.40;99.90
27128;DHT22;14660;49.008;8.390;2023-02-19T04:34:01;11.40;99.90
27128;DHT22;14660;49.008;8.390;2023-02-19T04:36:33;11.40;99.90
27128;DHT22;14660;49.008;8.390;2023-02-19T04:38:59;11.40;99.90
27128;DHT22;14660;49.008;8.390;2023-02-19T04:41:26;11.40;99.90
27128;DHT22;14660;49.008;8.390;2023-02-19T04:43:52;11.40;99.90
27128;DHT22;14660;49.008;8.390;2023-02-19T04:46:19;11.40;99.90
27128;DHT22;14660;49.008;8.390;2023-02-19T04:48:46;11.50;99.90
27128;DHT22;14660;49.008;8.390;2023-02-19T04:51:13;11.60;99.90
27128;DHT22;14660;49.008;8.390;2023-02-19T04:53:39;11.60;99.90
27128;DHT22;14660;49.008;8.390;2023-02-19T04:56:11;11.50;99.90
27128;DHT22;14660;49.008;8.390;2023-02-19T04:58:38;11.40;99.90
27128;DHT22;14660;49.008;8.390;2023-02-19T05:01:05;11.30;99.90
27128;DHT22;14660;49.008;8.390;2023-02-19T05:03:32;11.30;99.90
27128;DHT22;14660;49.008;8.390;2023-02-19T05:06:09;11.30;99.90
27128;DHT22;14660;49.008;8.390;2023-02-19T05:08:37;11.10;99.90
27128;DHT22;14660;49.008;8.390;2023-02-19T05:11:06;11.10;99.90
27128;DHT22;14660;49.008;8.390;2023-02-19T05:13:33;11.30;99.90
27128;DHT22;14660;49.008;8.390;2023-02-19T05:16:03;11.10;99.90
27128;DHT22;14660;49.008;8.390;2023-02-19T05:18:31;11.20;99.90
27128;DHT22;14660;49.008;8.390;2023-02-19T05:20:58;11.20;99.90
27128;DHT22;14660;49.008;8.390;2023-02-19T05:23:26;11.10;99.90
27128;DHT22;14660;49.008;8.390;2023-02-19T05:25:53;11.10;99.90
27128;DHT22;14660;49.008;8.390;2023-02-19T05:28:20;11.00;99.90
27128;DHT22;14660;49.008;8.390;2023-02-19T05:30:55;11.10;99.90
27128;DHT22;14660;49.008;8.390;2023-02-19T05:33:24;11.10;99.90
27128;DHT22;14660;49.008;8.390;2023-02-19T05:35:53;11.00;99.90
27128;DHT22;14660;49.008;8.390;2023-02-19T05:38:21;11.00;99.90
27128;DHT22;14660;49.008;8.390;2023-02-19T05:40:48;10.90;99.90
27128;DHT22;14660;49.008;8.390;2023-02-19T05:43:17;10.80;99.90
27128;DHT22;14660;49.008;8.390;2023-02-19T05:45:42;10.90;99.90
27128;DHT22;14660;49.008;8.390;2023-02-19T05:48:11;10.80;99.90
27128;DHT22;14660;49.008;8.390;2023-02-19T05:50:38;10.80;99.90
27128;DHT22;14660;49.008;8.390;2023-02-19T05:53:05;10.90;99.90
27128;DHT22;14660;49.008;8.390;2023-02-19T05:55:35;10.90;99.90
27128;DHT22;14660;49.008;8.390;2023-02-19T05:58:01;10.90;99.90
27128;DHT22;14660;49.008;8.390;2023-02-19T06:00:28;10.80;99.90
27128;DHT22;14660;49.008;8.390;2023-02-19T06:02:54;10.90;99.90
27128;DHT22;14660;49.008;8.390;2023-02-19T06:05:21;10.80;99.90
27128;DHT22;14660;49.008;8.390;2023-02-19T06:07:48;10.90;99.90
27128;DHT22;14660;49.008;8.390;2023-02-19T06:10:18;10.90;99.90
27128;DHT22;14660;49.008;8.390;2023-02-19T06:12:45;10.90;99.90
27128;DHT22;14660;49.008;8.390;2023-02-19T06:15:11;10.80;99.90
27128;DHT22;14660;49.008;8.390;2023-02-19T06:17:43;10.70;99.90
27128;DHT22;14660;49.008;8.390;2023-02-19T06:20:11;10.80;99.90
27128;DHT22;14660;49.008;8.390;2023-02-19T06:22:37;10.80;99.90
27128;DHT22;14660;49.008;8.390;2023-02-19T06:25:05;10.90;99.90
27128;DHT22;14660;49.008;8.390;2023-02-19T06:27:37;10.90;99.90
27128;DHT22;14660;49.008;8.390;2023-02-19T06:30:04;11.00;99.90
27128;DHT22;14660;49.008;8.390;2023-02-19T06:32:31;10.90;99.90
27128;DHT22;14660;49.008;8.390;2023-02-19T06:34:58;10.90;99.90
27128;DHT22;14660;49.008;8.390;2023-02-19T06:37:25;10.90;99.90
27128;DHT22;14660;49.008;8.390;2023-02-19T06:39:51;10.80;99.90
27128;DHT22;14660;49.008;8.390;2023-02-19T06:42:18;10.80;99.90
27128;DHT22;14660;49.008;8.390;2023-02-19T06:44:45;10.90;99.90
27128;DHT22;14660;49.008;8.390;2023-02-19T06:47:14;10.90;99.90
27128;DHT22;14660;49.008;8.390;2023-02-19T06:49:41;10.80;99.90
27128;DHT22;14660;49.008;8.390;2023-02-19T06:52:06;10.70;99.90
27128;DHT22;14660;49.008;8.390;2023-02-19T06:54:34;10.80;99.90
27128;DHT22;14660;49.008;8.390;2023-02-19T06:57:01;10.70;99.90
27128;DHT22;14660;49.008;8.390;2023-02-19T06:59:28;10.80;99.90
27128;DHT22;14660;49.008;8.390;2023-02-19T07:01:55;10.80;99.90
27128;DHT22;14660;49.008;8.390;2023-02-19T07:04:21;10.80;99.90
27128;DHT22;14660;49.008;8.390;2023-02-19T07:06:48;10.80;99.90
27128;DHT22;14660;49.008;8.390;2023-02-19T07:09:15;11.00;99.90
27128;DHT22;14660;49.008;8.390;2023-02-19T07:11:41;10.90;99.90
27128;DHT22;14660;49.008;8.390;2023-02-19T07:14:14;10.90;99.90
27128;DHT22;14660;49.008;8.390;2023-02-19T07:16:42;10.90;99.90
27128;DHT22;14660;49.008;8.390;2023-02-19T07:19:09;10.90;99.90
27128;DHT22;14660;49.008;8.390;2023-02-19T07:21:37;11.00;99.90
27128;DHT22;14660;49.008;8.390;2023-02-19T07:24:04;10.90;99.90
27128;DHT22;14660;49.008;8.390;2023-02-19T07:26:31;10.90;99.90
27128;DHT22;14660;49.008;8.390;2023-02-19T07:28:58;11.10;99.90
27128;DHT22;14660;49.008;8.390;2023-02-19T07:31:25;11.10;99.90
27128;DHT22;14660;49.008;8.390;2023-02-19T07:33:54;11.10;99.90
27128;DHT22;14660;49.008;8.390;2023-02-19T07:36:23;11.10;99.90
27128;DHT22;14660;49.008;8.390;2023-02-19T07:38:57;11.10;99.90
27128;DHT22;14660;49.008;8.390;2023-02-19T07:41:26;11.00;99.90
27128;DHT22;14660;49.008;8.390;2023-02-19T07:43:53;11.20;99.90
27128;DHT22;14660;49.008;8.390;2023-02-19T07:46:21;11.20;99.90
27128;DHT22;14660;49.008;8.390;2023-02-19T07:48:48;11.30;99.90
27128;DHT22;14660;49.008;8.390;2023-02-19T07:51:17;11.30;99.90
27128;DHT22;14660;49.008;8.390;2023-02-19T07:53:48;11.30;99.90
27128;DHT22;14660;49.008;8.390;2023-02-19T07:56:21;11.30;99.90
27128;DHT22;14660;49.008;8.390;2023-02-19T07:58:47;11.30;99.90
27128;DHT22;14660;49.008;8.390;2023-02-19T08:01:17;11.30;99.90
27128;DHT22;14660;49.008;8.390;2023-02-19T08:03:44;11.30;99.90
27128;DHT22;14660;49.008;8.390;2023-02-19T08:06:11;11.40;99.90
27128;DHT22;14660;49.008;8.390;2023-02-19T08:08:39;11.40;99.90
27128;DHT22;14660;49.008;8.390;2023-02-19T08:11:05;11.30;99.90
27128;DHT22;14660;49.008;8.390;2023-02-19T08:13:54;11.30;99.90
27128;DHT22;14660;49.008;8.390;2023-02-19T08:16:22;11.30;99.90
27128;DHT22;14660;49.008;8.390;2023-02-19T08:18:50;11.20;99.90
27128;DHT22;14660;49.008;8.390;2023-02-19T08:21:16;11.20;99.90
27128;DHT22;14660;49.008;8.390;2023-02-19T08:23:48;11.20;99.90
27128;DHT22;14660;49.008;8.390;2023-02-19T08:26:16;11.30;99.90
27128;DHT22;14660;49.008;8.390;2023-02-19T08:28:44;11.30;99.90
27128;DHT22;14660;49.008;8.390;2023-02-19T08:31:11;11.30;99.90
27128;DHT22;14660;49.008;8.390;2023-02-19T08:33:39;11.30;99.90
27128;DHT22;14660;49.008;8.390;2023-02-19T08:36:09;11.50;99.90
27128;DHT22;14660;49.008;8.390;2023-02-19T08:38:37;11.50;99.90
27128;DHT22;14660;49.008;8.390;2023-02-19T08:41:10;11.50;99.90
27128;DHT22;14660;49.008;8.390;2023-02-19T08:43:37;11.50;99.90
27128;DHT22;14660;49.008;8.390;2023-02-19T08:46:05;11.50;99.90
27128;DHT22;14660;49.008;8.390;2023-02-19T08:48:33;11.60;99.90
27128;DHT22;14660;49.008;8.390;2023-02-19T08:51:02;11.60;99.90
27128;DHT22;14660;49.008;8.390;2023-02-19T08:53:31;11.70;99.90
27128;DHT22;14660;49.008;8.390;2023-02-19T08:55:58;11.70;99.90
27128;DHT22;14660;49.008;8.390;2023-02-19T08:58:24;11.70;99.90
27128;DHT22;14660;49.008;8.390;2023-02-19T09:00:52;11.80;99.90
27128;DHT22;14660;49.008;8.390;2023-02-19T09:03:20;11.80;99.90
27128;DHT22;14660;49.008;8.390;2023-02-19T09:05:47;11.90;99.90
27128;DHT22;14660;49.008;8.390;2023-02-19T09:08:14;11.80;99.90
27128;DHT22;14660;49.008;8.390;2023-02-19T09:10:41;11.80;99.90
27128;DHT22;14660;49.008;8.390;2023-02-19T09:13:09;11.90;99.90
27128;DHT22;14660;49.008;8.390;2023-02-19T09:15:37;11.90;99.90
27128;DHT22;14660;49.008;8.390;2023-02-19T09:18:04;12.10;99.90
27128;DHT22;14660;49.008;8.390;2023-02-19T09:20:31;12.10;99.90
27128;DHT22;14660;49.008;8.390;2023-02-19T09:22:58;12.10;99.90
27128;DHT22;14660;49.008;8.390;2023-02-19T09:25:25;12.10;99.90
27128;DHT22;14660;49.008;8.390;2023-02-19T09:27:56;12.30;99.90
27128;DHT22;14660;49.008;8.390;2023-02-19T09:30:23;12.20;99.90
27128;DHT22;14660;49.008;8.390;2023-02-19T09:32:50;12.30;99.90
27128;DHT22;14660;49.008;8.390;2023-02-19T09:35:17;12.30;99.90
27128;DHT22;14660;49.008;8.390;2023-02-19T09:37:43;12.30;99.90
27128;DHT22;14660;49.008;8.390;2023-02-19T09:40:11;12.30;99.90
27128;DHT22;14660;49.008;8.390;2023-02-19T09:42:40;12.20;99.90
27128;DHT22;14660;49.008;8.390;2023-02-19T09:45:14;12.20;99.90
27128;DHT22;14660;49.008;8.390;2023-02-19T09:47:43;12.30;99.90
27128;DHT22;14660;49.008;8.390;2023-02-19T09:50:11;12.30;99.90
27128;DHT22;14660;49.008;8.390;2023-02-19T09:52:44;12.20;99.90
27128;DHT22;14660;49.008;8.390;2023-02-19T09:55:32;12.20;99.90
27128;DHT22;14660;49.008;8.390;2023-02-19T09:58:06;12.30;99.90
27128;DHT22;14660;49.008;8.390;2023-02-19T10:00:35;12.30;99.90
27128;DHT22;14660;49.008;8.390;2023-02-19T10:03:06;12.30;99.90
27128;DHT22;14660;49.008;8.390;2023-02-19T10:05:37;12.30;99.90
27128;DHT22;14660;49.008;8.390;2023-02-19T10:08:07;12.30;99.90
27128;DHT22;14660;49.008;8.390;2023-02-19T10:10:35;12.30;99.90
27128;DHT22;14660;49.008;8.390;2023-02-19T10:13:32;12.40;99.90
27128;DHT22;14660;49.008;8.390;2023-02-19T10:16:02;12.40;99.90
27128;DHT22;14660;49.008;8.390;2023-02-19T10:18:38;12.40;99.90
27128;DHT22;14660;49.008;8.390;2023-02-19T10:21:21;12.40;99.90
27128;DHT22;14660;49.008;8.390;2023-02-19T10:23:56;12.50;99.90
27128;DHT22;14660;49.008;8.390;2023-02-19T10:26:25;12.50;99.90
27128;DHT22;14660;49.008;8.390;2023-02-19T10:28:53;12.50;99.90
27128;DHT22;14660;49.008;8.390;2023-02-19T10:31:23;12.60;99.90
27128;DHT22;14660;49.008;8.390;2023-02-19T10:33:58;12.60;99.90
27128;DHT22;14660;49.008;8.390;2023-02-19T10:36:47;12.70;99.90
27128;DHT22;14660;49.008;8.390;2023-02-19T10:42:29;12.60;99.90
27128;DHT22;14660;49.008;8.390;2023-02-19T10:45:02;12.80;99.90
27128;DHT22;14660;49.008;8.390;2023-02-19T10:47:30;12.80;99.90
27128;DHT22;14660;49.008;8.390;2023-02-19T10:49:59;12.90;99.90
27128;DHT22;14660;49.008;8.390;2023-02-19T10:52:31;12.90;99.90
27128;DHT22;14660;49.008;8.390;2023-02-19T10:55:29;13.10;99.90
27128;DHT22;14660;49.008;8.390;2023-02-19T10:58:15;13.10;99.90
27128;DHT22;14660;49.008;8.390;2023-02-19T11:04:27;13.20;99.90
27128;DHT22;14660;49.008;8.390;2023-02-19T11:06:55;13.20;99.90
27128;DHT22;14660;49.008;8.390;2023-02-19T11:09:49;13.10;99.90
27128;DHT22;14660;49.008;8.390;2023-02-19T11:12:45;13.20;99.90
27128;DHT22;14660;49.008;8.390;2023-02-19T11:18:34;13.20;99.90
27128;DHT22;14660;49.008;8.390;2023-02-19T11:21:06;13.20;99.90
27128;DHT22;14660;49.008;8.390;2023-02-19T11:23:51;13.20;99.90
27128;DHT22;14660;49.008;8.390;2023-02-19T11:26:25;13.30;99.90
27128;DHT22;14660;49.008;8.390;2023-02-19T11:29:17;13.30;99.90
27128;DHT22;14660;49.008;8.390;2023-02-19T11:31:45;13.50;99.90
27128;DHT22;14660;49.008;8.390;2023-02-19T11:34:30;13.70;99.90
27128;DHT22;14660;49.008;8.390;2023-02-19T11:37:18;13.70;99.90
27128;DHT22;14660;49.008;8.390;2023-02-19T11:39:48;13.60;99.90
27128;DHT22;14660;49.008;8.390;2023-02-19T11:42:42;13.60;99.90
27128;DHT22;14660;49.008;8.390;2023-02-19T11:45:36;13.60;99.90
27128;DHT22;14660;49.008;8.390;2023-02-19T12:00:31;13.60;99.90
27128;DHT22;14660;49.008;8.390;2023-02-19T12:12:13;13.50;99.90
27128;DHT22;14660;49.008;8.390;2023-02-19T12:21:13;13.50;99.90
27128;DHT22;14660;49.008;8.390;2023-02-19T12:26:38;13.50;99.90
27128;DHT22;14660;49.008;8.390;2023-02-19T12:36:26;13.40;99.90
27128;DHT22;14660;49.008;8.390;2023-02-19T12:45:04;13.40;99.90
27128;DHT22;14660;49.008;8.390;2023-02-19T12:47:38;13.40;99.90
27128;DHT22;14660;49.008;8.390;2023-02-19T12:50:22;13.40;99.90
27128;DHT22;14660;49.008;8.390;2023-02-19T12:55:58;13.20;99.90
27128;DHT22;14660;49.008;8.390;2023-02-19T12:58:36;13.20;99.90
27128;DHT22;14660;49.008;8.390;2023-02-19T13:01:06;13.20;99.90
27128;DHT22;14660;49.008;8.390;2023-02-19T13:04:05;13.30;99.90
27128;DHT22;14660;49.008;8.390;2023-02-19T13:06:40;13.40;99.90
27128;DHT22;14660;49.008;8.390;2023-02-19T13:09:17;13.40;99.90
27128;DHT22;14660;49.008;8.390;2023-02-19T13:14:55;13.50;99.90
27128;DHT22;14660;49.008;8.390;2023-02-19T13:17:50;13.40;99.90
27128;DHT22;14660;49.008;8.390;2023-02-19T13:20:35;13.50;99.90
27128;DHT22;14660;49.008;8.390;2023-02-19T13:23:30;13.50;99.90
27128;DHT22;14660;49.008;8.390;2023-02-19T13:38:45;13.70;99.90
27128;DHT22;14660;49.008;8.390;2023-02-19T13:41:52;13.60;99.90
27128;DHT22;14660;49.008;8.390;2023-02-19T13:44:27;13.50;99.90
27128;DHT22;14660;49.008;8.390;2023-02-19T13:46:55;13.60;99.90
27128;DHT22;14660;49.008;8.390;2023-02-19T13:49:41;13.60;99.90
27128;DHT22;14660;49.008;8.390;2023-02-19T13:58:37;13.60;99.90
27128;DHT22;14660;49.008;8.390;2023-02-19T14:01:12;13.60;99.90
27128;DHT22;14660;49.008;8.390;2023-02-19T14:04:08;13.50;99.90
27128;DHT22;14660;49.008;8.390;2023-02-19T14:09:47;13.60;99.90
27128;DHT22;14660;49.008;8.390;2023-02-19T14:12:33;13.60;99.90
27128;DHT22;14660;49.008;8.390;2023-02-19T14:15:41;13.50;99.90
27128;DHT22;14660;49.008;8.390;2023-02-19T14:21:38;13.40;99.90
27128;DHT22;14660;49.008;8.390;2023-02-19T14:24:15;13.30;99.90
27128;DHT22;14660;49.008;8.390;2023-02-19T14:26:43;13.20;99.90
27128;DHT22;14660;49.008;8.390;2023-02-19T14:29:12;13.30;99.90
27128;DHT22;14660;49.008;8.390;2023-02-19T14:31:44;13.30;99.90
27128;DHT22;14660;49.008;8.390;2023-02-19T14:34:29;13.30;99.90
27128;DHT22;14660;49.008;8.390;2023-02-19T14:36:58;13.20;99.90
27128;DHT22;14660;49.008;8.390;2023-02-19T14:39:44;13.20;99.90
27128;DHT22;14660;49.008;8.390;2023-02-19T14:42:29;13.20;99.90
27128;DHT22;14660;49.008;8.390;2023-02-19T14:45:05;13.20;99.90
27128;DHT22;14660;49.008;8.390;2023-02-19T14:47:34;13.30;99.90
27128;DHT22;14660;49.008;8.390;2023-02-19T14:50:30;13.20;99.90
27128;DHT22;14660;49.008;8.390;2023-02-19T14:53:00;13.20;99.90
27128;DHT22;14660;49.008;8.390;2023-02-19T14:55:48;13.20;99.90
27128;DHT22;14660;49.008;8.390;2023-02-19T14:58:27;13.20;99.90
27128;DHT22;14660;49.008;8.390;2023-02-19T15:00:56;13.20;99.90
27128;DHT22;14660;49.008;8.390;2023-02-19T15:03:37;13.20;99.90
27128;DHT22;14660;49.008;8.390;2023-02-19T15:06:23;13.20;99.90
27128;DHT22;14660;49.008;8.390;2023-02-19T15:08:55;13.10;99.90
27128;DHT22;14660;49.008;8.390;2023-02-19T15:11:25;13.10;99.90
27128;DHT22;14660;49.008;8.390;2023-02-19T15:13:59;13.00;99.90
27128;DHT22;14660;49.008;8.390;2023-02-19T15:16:28;13.00;99.90
27128;DHT22;14660;49.008;8.390;2023-02-19T15:18:57;13.00;99.90
27128;DHT22;14660;49.008;8.390;2023-02-19T15:21:46;12.90;99.90
27128;DHT22;14660;49.008;8.390;2023-02-19T15:24:15;12.90;99.90
27128;DHT22;14660;49.008;8.390;2023-02-19T15:26:47;12.90;99.90
27128;DHT22;14660;49.008;8.390;2023-02-19T15:29:18;12.90;99.90
27128;DHT22;14660;49.008;8.390;2023-02-19T15:31:58;12.90;99.90
27128;DHT22;14660;49.008;8.390;2023-02-19T15:34:29;12.90;99.90
27128;DHT22;14660;49.008;8.390;2023-02-19T15:37:07;12.90;99.90
27128;DHT22;14660;49.008;8.390;2023-02-19T15:39:54;12.90;99.90
27128;DHT22;14660;49.008;8.390;2023-02-19T15:42:30;12.80;99.90
27128;DHT22;14660;49.008;8.390;2023-02-19T15:45:38;12.80;99.90
27128;DHT22;14660;49.008;8.390;2023-02-19T15:48:15;12.80;99.90
27128;DHT22;14660;49.008;8.390;2023-02-19T15:51:07;12.70;99.90
27128;DHT22;14660;49.008;8.390;2023-02-19T15:53:39;12.70;99.90
27128;DHT22;14660;49.008;8.390;2023-02-19T15:56:31;12.80;99.90
27128;DHT22;14660;49.008;8.390;2023-02-19T15:59:23;12.70;99.90
27128;DHT22;14660;49.008;8.390;2023-02-19T16:02:02;12.80;99.90
27128;DHT22;14660;49.008;8.390;2023-02-19T16:04:29;12.70;99.90
27128;DHT22;14660;49.008;8.390;2023-02-19T16:07:25;12.60;99.90
27128;DHT22;14660;49.008;8.390;2023-02-19T16:10:24;12.70;99.90
27128;DHT22;14660;49.008;8.390;2023-02-19T16:13:00;12.60;99.90
27128;DHT22;14660;49.008;8.390;2023-02-19T16:15:30;12.70;99.90
27128;DHT22;14660;49.008;8.390;2023-02-19T16:17:57;12.80;99.90
27128;DHT22;14660;49.008;8.390;2023-02-19T16:20:33;12.60;99.90
27128;DHT22;14660;49.008;8.390;2023-02-19T16:23:02;12.60;99.90
27128;DHT22;14660;49.008;8.390;2023-02-19T16:25:48;12.50;99.90
27128;DHT22;14660;49.008;8.390;2023-02-19T16:28:23;12.50;99.90
27128;DHT22;14660;49.008;8.390;2023-02-19T16:31:10;12.50;99.90
27128;DHT22;14660;49.008;8.390;2023-02-19T16:33:56;12.50;99.90
27128;DHT22;14660;49.008;8.390;2023-02-19T16:36:41;12.40;99.90
27128;DHT22;14660;49.008;8.390;2023-02-19T16:39:27;12.40;99.90
27128;DHT22;14660;49.008;8.390;2023-02-19T16:44:58;12.40;99.90
27128;DHT22;14660;49.008;8.390;2023-02-19T16:47:28;12.40;99.90
27128;DHT22;14660;49.008;8.390;2023-02-19T16:49:57;12.40;99.90
27128;DHT22;14660;49.008;8.390;2023-02-19T16:52:26;12.40;99.90
27128;DHT22;14660;49.008;8.390;2023-02-19T16:54:53;12.40;99.90
27128;DHT22;14660;49.008;8.390;2023-02-19T16:57:19;12.40;99.90
27128;DHT22;14660;49.008;8.390;2023-02-19T16:59:47;12.40;99.90
27128;DHT22;14660;49.008;8.390;2023-02-19T17:02:22;12.40;99.90
27128;DHT22;14660;49.008;8.390;2023-02-19T17:04:50;12.30;99.90
27128;DHT22;14660;49.008;8.390;2023-02-19T17:07:20;12.40;99.90
27128;DHT22;14660;49.008;8.390;2023-02-19T17:09:47;12.30;99.90
27128;DHT22;14660;49.008;8.390;2023-02-19T17:12:15;12.30;99.90
27128;DHT22;14660;49.008;8.390;2023-02-19T17:14:42;12.30;99.90
27128;DHT22;14660;49.008;8.390;2023-02-19T17:17:10;12.20;99.90
27128;DHT22;14660;49.008;8.390;2023-02-19T17:19:37;12.20;99.90
27128;DHT22;14660;49.008;8.390;2023-02-19T17:22:05;12.30;99.90
27128;DHT22;14660;49.008;8.390;2023-02-19T17:24:32;12.20;99.90
27128;DHT22;14660;49.008;8.390;2023-02-19T17:26:59;12.30;99.90
27128;DHT22;14660;49.008;8.390;2023-02-19T17:29:26;12.20;99.90
27128;DHT22;14660;49.008;8.390;2023-02-19T17:31:54;12.10;99.90
27128;DHT22;14660;49.008;8.390;2023-02-19T17:34:21;12.20;99.90
27128;DHT22;14660;49.008;8.390;2023-02-19T17:36:48;12.20;99.90
27128;DHT22;14660;49.008;8.390;2023-02-19T17:39:15;12.10;99.90
27128;DHT22;14660;49.008;8.390;2023-02-19T17:41:42;12.20;99.90
27128;DHT22;14660;49.008;8.390;2023-02-19T17:44:09;12.20;99.90
27128;DHT22;14660;49.008;8.390;2023-02-19T17:46:36;12.10;99.90
27128;DHT22;14660;49.008;8.390;2023-02-19T17:49:04;12.20;99.90
27128;DHT22;14660;49.008;8.390;2023-02-19T17:51:31;12.20;99.90
27128;DHT22;14660;49.008;8.390;2023-02-19T17:53:58;12.10;99.90
27128;DHT22;14660;49.008;8.390;2023-02-19T17:56:27;12.20;99.90
27128;DHT22;14660;49.008;8.390;2023-02-19T17:58:58;12.20;99.90
27128;DHT22;14660;49.008;8.390;2023-02-19T18:01:23;12.20;99.90
27128;DHT22;14660;49.008;8.390;2023-02-19T18:03:50;12.20;99.90
27128;DHT22;14660;49.008;8.390;2023-02-19T18:06:17;12.10;99.90
27128;DHT22;14660;49.008;8.390;2023-02-19T18:08:49;12.20;99.90
27128;DHT22;14660;49.008;8.390;2023-02-19T18:11:16;12.20;99.90
27128;DHT22;14660;49.008;8.390;2023-02-19T18:13:43;12.20;99.90
27128;DHT22;14660;49.008;8.390;2023-02-19T18:16:10;12.20;99.90
27128;DHT22;14660;49.008;8.390;2023-02-19T18:18:37;12.20;99.90
27128;DHT22;14660;49.008;8.390;2023-02-19T18:21:09;12.10;99.90